Terminal Aerodrome Forecast
Issued by NWS

Home | Current Version | Previous Version | Text Only | Print | Product List | Glossary On
Versions: 1 2 3 4 5 6 7 8 9 10 11 12 13 14 15 16 17 18
000
FTUS45 KMSO 022327
TAFSMN
TAF
KSMN 022327Z 0300/0324 01015G25KT P6SM VCTS FEW050CB BKN070
     FM030200 VRB06KT P6SM VCSH SCT050 BKN070
     FM030600 VRB03KT P6SM SCT050 BKN100
      AMD LTD TO CLD VIS AND WIND=

USA.gov is the U.S. government's official web portal to all federal, state and local government web resources and services.